Accueil
METAR-TAF:

METAR-TAF

Aéroports :

Kwethluk, Alaska, États-Unis

latitude: 60-47-25N, longitude: 161-26-37W, altitude: 9 m

Observation

Le bulletin a été fait il y a 56 minutes, à 06:56 UTC
Vent 9 kt de nord/nord-est
Température -11°C
Humidité 92%
Pression 1000 hPa
Visibilité: 16.1 km
Quelques nuages à une hauteur de 1500 ft
Nuages fragmentés à une hauteur de 3600 ft
Ciel couvert à une hauteur de 4500 ft

METAR: PFKW 060656Z AUTO 03009KT 10SM FEW015 BKN036 OVC045 M11/M12 A2954 RMK AO2 SLP002 T11111122 FZRANO

Heure: 22:52 (07:52 UTC)


TAF: absent

Observations et prévisions météorologiques de plus de 4000 aéroports (messages METAR et TAF).

Les stations disponibles sont représentées par des disques jaunes et rouges sur la carte.

Passer la souris dessus pour voir le nom de la station.

Cliquer dessus pour voir les observations et prévisions météorologiques.

Pour changer de carte: cliquez sur les boutons verts avec une croix noire pour zoomer, sur le bouton vert avec un tiret pour effectuer un zoom arrière, ou sur les flèches vertes pour les cartes adjacentes.


METAR-TAF: